createdAt,value
2022-12-12T00:04:41.227Z,23.80
2022-12-12T00:09:45.198Z,22.75
2022-12-12T00:14:50.677Z,22.60
2022-12-12T00:19:54.750Z,19.70
2022-12-12T00:24:58.835Z,19.58
2022-12-12T00:30:04.337Z,21.45
2022-12-12T00:35:09.363Z,19.95
2022-12-12T00:40:14.747Z,23.77
2022-12-12T00:45:20.325Z,22.23
2022-12-12T00:50:24.480Z,22.58
2022-12-12T00:55:28.786Z,22.27
2022-12-12T01:00:34.792Z,22.35
2022-12-12T01:05:38.851Z,21.27
2022-12-12T01:10:42.960Z,19.42
2022-12-12T01:15:48.458Z,21.30
2022-12-12T01:20:53.083Z,22.33
2022-12-12T01:26:01.943Z,17.77
2022-12-12T01:31:07.836Z,19.88
2022-12-12T01:36:16.358Z,22.23
2022-12-12T01:41:21.405Z,18.80
2022-12-12T01:46:42.913Z,19.33
2022-12-12T01:51:48.710Z,20.67
2022-12-12T02:01:58.992Z,22.90
2022-12-12T02:12:08.404Z,21.33
2022-12-12T02:17:32.525Z,20.23
2022-12-12T02:23:01.286Z,18.67
2022-12-12T02:28:44.006Z,21.65
2022-12-12T02:33:57.103Z,17.60
2022-12-12T02:39:07.028Z,17.15
2022-12-12T02:44:21.843Z,20.20
2022-12-12T02:49:32.167Z,20.30
2022-12-12T02:54:36.285Z,18.45
2022-12-12T02:59:43.681Z,18.05
2022-12-12T03:05:39.039Z,19.52
2022-12-12T03:10:52.077Z,18.92
2022-12-12T03:16:10.310Z,18.55
2022-12-12T03:21:20.698Z,17.63
2022-12-12T03:26:30.603Z,19.50
2022-12-12T03:31:38.714Z,17.50
2022-12-12T03:36:50.405Z,18.15
2022-12-12T03:42:03.543Z,18.10
2022-12-12T03:47:14.284Z,17.40
2022-12-12T03:52:25.650Z,18.55
2022-12-12T03:57:37.164Z,16.33
2022-12-12T04:02:44.306Z,16.30
2022-12-12T04:07:56.197Z,16.33
2022-12-12T04:13:13.566Z,16.90
2022-12-12T04:18:26.861Z,16.60
2022-12-12T04:23:38.324Z,16.15
2022-12-12T04:28:49.602Z,16.48
2022-12-12T04:33:59.473Z,16.33
2022-12-12T04:39:07.968Z,16.17
2022-12-12T04:44:14.561Z,12.85
2022-12-12T04:49:21.316Z,15.20
2022-12-12T04:54:33.955Z,13.60
2022-12-12T04:59:38.440Z,12.23
2022-12-12T05:04:50.539Z,11.68
2022-12-12T05:09:56.080Z,14.93
2022-12-12T05:14:59.985Z,13.55
2022-12-12T05:20:03.932Z,13.82
2022-12-12T05:25:10.474Z,12.80
2022-12-12T05:30:15.065Z,13.45
2022-12-12T05:35:19.784Z,12.38
2022-12-12T05:40:25.050Z,14.30
2022-12-12T05:45:29.053Z,14.15
2022-12-12T05:50:32.889Z,13.15
2022-12-12T05:55:38.880Z,12.68
2022-12-12T06:00:42.763Z,11.98
2022-12-12T06:05:47.137Z,13.32
2022-12-12T06:10:52.396Z,13.35
2022-12-12T06:15:56.547Z,13.20
2022-12-12T06:21:05.007Z,12.50
2022-12-12T06:26:13.605Z,12.95
2022-12-12T06:31:18.254Z,11.50
2022-12-12T06:36:24.975Z,12.65
2022-12-12T06:41:33.411Z,12.30
2022-12-12T06:46:37.566Z,12.02
2022-12-12T06:51:44.419Z,12.02
2022-12-12T06:56:50.743Z,13.55
2022-12-12T07:01:57.019Z,13.20
2022-12-12T07:07:01.443Z,12.60
2022-12-12T07:12:06.970Z,11.88
2022-12-12T07:17:10.842Z,12.75
2022-12-12T07:22:14.807Z,12.38
2022-12-12T07:27:21.966Z,14.27
2022-12-12T07:32:26.033Z,14.93
2022-12-12T07:37:30.156Z,17.30
2022-12-12T07:42:35.460Z,13.38
2022-12-12T07:47:39.417Z,13.80
2022-12-12T07:52:43.685Z,16.55
2022-12-12T07:57:49.106Z,16.55
2022-12-12T08:02:53.366Z,14.18
2022-12-12T08:07:57.415Z,17.05
2022-12-12T08:13:02.832Z,17.55
2022-12-12T08:18:06.784Z,19.10
2022-12-12T08:23:11.845Z,17.70
2022-12-12T08:28:17.193Z,17.35
2022-12-12T08:33:21.181Z,16.20
2022-12-12T08:38:25.424Z,17.15
2022-12-12T08:43:30.766Z,14.88
2022-12-12T08:48:34.891Z,14.93
2022-12-12T08:53:39.040Z,17.42
2022-12-12T08:58:44.383Z,15.40
2022-12-12T09:03:49.022Z,14.85
2022-12-12T09:08:53.864Z,15.00
2022-12-12T09:13:59.446Z,15.18
2022-12-12T09:19:03.474Z,15.90
2022-12-12T09:24:08.666Z,17.20
2022-12-12T09:29:14.081Z,15.52
2022-12-12T09:34:17.935Z,14.05
2022-12-12T09:39:21.957Z,16.30
2022-12-12T09:44:28.090Z,16.40
2022-12-12T09:49:43.692Z,17.75
2022-12-12T09:59:58.927Z,17.65
2022-12-12T10:05:09.183Z,17.20
2022-12-12T10:10:22.799Z,19.45
2022-12-12T10:15:32.805Z,16.73
2022-12-12T10:20:44.940Z,16.65
2022-12-12T10:25:53.684Z,17.23
2022-12-12T10:31:28.699Z,17.92
2022-12-12T10:36:48.810Z,18.15
2022-12-12T10:41:59.104Z,16.23
2022-12-12T10:47:06.741Z,17.13
2022-12-12T10:52:18.051Z,18.92
2022-12-12T10:57:24.607Z,17.65
2022-12-12T11:02:37.963Z,15.15
2022-12-12T11:07:44.448Z,16.02
2022-12-12T11:12:55.727Z,14.48
2022-12-12T11:18:05.905Z,15.38
2022-12-12T11:23:19.600Z,16.08
2022-12-12T11:28:25.565Z,16.65
2022-12-12T11:38:42.096Z,16.30
2022-12-12T11:44:00.048Z,16.08
2022-12-12T11:49:06.976Z,16.17
2022-12-12T11:54:15.505Z,16.83
2022-12-12T11:59:37.317Z,19.42
2022-12-12T12:04:54.797Z,19.52
2022-12-12T12:10:04.270Z,18.05
2022-12-12T12:15:35.022Z,16.85
2022-12-12T12:21:03.783Z,15.98
2022-12-12T12:26:13.719Z,15.10
2022-12-12T12:31:25.107Z,15.60
2022-12-12T12:36:40.080Z,15.82
2022-12-12T12:41:56.206Z,14.88
2022-12-12T12:47:05.218Z,17.65
2022-12-12T12:52:16.354Z,17.17
2022-12-12T12:57:28.000Z,18.42
2022-12-12T13:02:42.457Z,16.35
2022-12-12T13:07:56.179Z,15.63
2022-12-12T13:13:07.627Z,18.20
2022-12-12T13:18:14.228Z,15.65
2022-12-12T13:28:42.602Z,16.67
2022-12-12T13:33:50.068Z,16.95
2022-12-12T13:38:58.131Z,19.13
2022-12-12T13:44:02.166Z,16.70
2022-12-12T13:49:27.851Z,15.98
2022-12-12T13:54:49.235Z,14.32
2022-12-12T14:00:20.865Z,17.08
2022-12-12T14:05:27.768Z,15.05
2022-12-12T14:10:36.484Z,16.20
2022-12-12T14:15:40.731Z,17.05
2022-12-12T14:20:45.751Z,20.30
2022-12-12T14:25:51.203Z,21.15
2022-12-12T14:31:15.559Z,20.85
2022-12-12T14:36:44.110Z,20.35
2022-12-12T14:41:50.072Z,17.60
2022-12-12T14:46:54.566Z,20.80
2022-12-12T14:51:59.488Z,20.77
2022-12-12T14:57:08.795Z,21.65
2022-12-12T15:02:21.259Z,23.77
2022-12-12T15:07:27.457Z,20.92
2022-12-12T15:12:36.690Z,23.25
2022-12-12T15:17:46.819Z,19.65
2022-12-12T15:22:55.297Z,22.65
2022-12-12T15:28:01.776Z,19.73
2022-12-12T15:33:08.130Z,24.33
2022-12-12T15:38:13.982Z,20.60
2022-12-12T15:43:23.361Z,20.25
2022-12-12T15:48:28.181Z,20.48
2022-12-12T15:53:35.468Z,21.20
2022-12-12T15:58:42.892Z,22.20
2022-12-12T16:03:58.503Z,20.25
2022-12-12T16:09:09.047Z,22.30
2022-12-12T16:14:43.223Z,25.02
2022-12-12T16:19:55.933Z,25.60
2022-12-12T16:25:14.614Z,24.88
2022-12-12T16:30:20.105Z,20.92
2022-12-12T16:35:25.754Z,22.35
2022-12-12T16:40:29.838Z,25.73
2022-12-12T16:45:35.282Z,21.27
2022-12-12T16:50:39.322Z,24.02
2022-12-12T16:55:46.670Z,23.67
2022-12-12T17:00:53.853Z,22.63
2022-12-12T17:05:57.854Z,23.17
2022-12-12T17:11:09.983Z,20.77
2022-12-12T17:16:18.567Z,19.40
2022-12-12T17:21:25.584Z,25.15
2022-12-12T17:26:29.530Z,20.45
2022-12-12T17:31:35.593Z,21.63
2022-12-12T17:36:39.953Z,22.05
2022-12-12T17:41:44.162Z,20.67
2022-12-12T17:46:49.546Z,22.73
2022-12-12T17:51:53.686Z,22.77
2022-12-12T17:56:57.601Z,24.92
2022-12-12T18:02:03.115Z,23.85
2022-12-12T18:12:11.732Z,22.75
2022-12-12T18:17:17.190Z,18.92
2022-12-12T18:27:25.360Z,22.05
2022-12-12T18:32:30.613Z,20.95
2022-12-12T18:37:34.477Z,25.42
2022-12-12T18:42:38.334Z,25.08
2022-12-12T18:47:44.758Z,25.83
2022-12-12T18:52:48.697Z,27.83
2022-12-12T18:57:52.723Z,28.02
2022-12-12T19:02:58.357Z,27.13
2022-12-12T19:08:02.528Z,29.13
2022-12-12T19:13:06.640Z,28.27
2022-12-12T19:18:12.013Z,26.80
2022-12-12T19:23:15.894Z,29.55
2022-12-12T19:28:19.898Z,33.75
2022-12-12T19:33:25.304Z,27.45
2022-12-12T19:38:29.244Z,27.13
2022-12-12T19:43:33.326Z,26.05
2022-12-12T19:48:39.312Z,28.15
2022-12-12T19:53:45.192Z,23.80
2022-12-12T19:58:50.397Z,27.45
2022-12-12T20:03:58.104Z,25.83
2022-12-12T20:09:02.149Z,25.20
2022-12-12T20:14:06.400Z,23.50
2022-12-12T20:19:12.418Z,21.60
2022-12-12T20:24:18.549Z,23.98
2022-12-12T20:29:24.838Z,21.25
2022-12-12T20:34:30.541Z,22.15
2022-12-12T20:44:41.452Z,22.27
2022-12-12T20:49:48.332Z,20.13
2022-12-12T20:54:52.745Z,27.02
2022-12-12T20:59:56.802Z,21.90
2022-12-12T21:05:02.616Z,22.17
2022-12-12T21:15:11.902Z,27.10
2022-12-12T21:20:18.028Z,23.20
2022-12-12T21:25:24.468Z,29.48
2022-12-12T21:30:28.707Z,21.92
2022-12-12T21:35:35.399Z,21.15
2022-12-12T21:40:39.466Z,21.40
2022-12-12T21:45:43.758Z,23.83
2022-12-12T21:50:49.242Z,23.45
2022-12-12T22:00:57.453Z,19.58
2022-12-12T22:06:10.696Z,18.95
2022-12-12T22:11:39.751Z,20.20
2022-12-12T22:16:40.525Z,19.07
2022-12-12T22:21:47.760Z,19.73
2022-12-12T22:26:51.931Z,17.23
2022-12-12T22:31:55.947Z,17.48
2022-12-12T22:37:01.857Z,18.33
2022-12-12T22:42:07.065Z,16.13
2022-12-12T22:47:11.110Z,22.60
2022-12-12T22:52:16.736Z,15.65
2022-12-12T23:02:25.450Z,14.02
2022-12-12T23:07:31.391Z,12.38
2022-12-12T23:12:35.515Z,15.07
2022-12-12T23:17:39.725Z,19.98
2022-12-12T23:22:46.649Z,16.65
2022-12-12T23:27:50.692Z,17.23
2022-12-12T23:32:54.769Z,15.13
2022-12-12T23:38:00.289Z,15.75
2022-12-12T23:43:04.399Z,16.35
2022-12-12T23:48:08.564Z,16.98
2022-12-12T23:53:14.067Z,14.75
2022-12-12T23:58:18.850Z,14.75
